Pagina principale
METAR-TAF:

METAR-TAF

Aeroporti :

Aeroporto di Bonriki

Tarawa, Kiribati

latitudine: 01-21N, longitudine: 172-55E, altezza: 2 m

Osservazione

Il bollettino è stato emesso 57 minuti fa, alle 00:00 UTC
Vento 8 kt da est
Temperature 31°C
Umidità 63%
Pressione 1009 hPa
Visibilità 10 km o più
Poco nuvoloso ad un'altezza di 2000 ft

METAR: NGTA 160000Z 08008KT 9999 FEW020 31/23 Q1009

Ora: 14:57 (00:57 UTC)

Previsione

Il bollettino è stato emesso 1 ora e 53 minuti fa, alle 23:04 UTC
Previsione valida dal 16 alle 00 UTC al 16 alle 24 UTC
Vento 7 kt da est
Visibilità 10 km o più
Nubi sparse ad un'altezza di 1800 ft
Nuvoloso ad un'altezza di 10000 ft

TAF: NGTA 152304Z 1600/1624 09007KT 9999 SCT018 BKN100

Osservazioni e previsioni meteorologiche di più di 4000 aeroporti (messaggi METAR e TAF).

Le stazioni disponibili sono rappresentate dai dischi gialli e rossi sulla carta.

Puntare il mouse per vedere il nome della stazione.

Clicca sopra per visualizzare le osservazioni e previsioni meteorologiche.

Per cambiare la mappa : fare clic sui pulsanti verdi con una croce nera per ingrandire, il pulsante verde con un trattino per diminuire, o sulla freccia verde per le mappe adiacenti.


METAR-TAF: